sensor_id;sensor_type;location;lat;lon;timestamp;pressure;altitude;pressure_sealevel;temperature;humidity
62418;BME280;48456;54.242;10.280;2022-07-10T00:02:00;101900.75;;;12.12;100.00
62418;BME280;48456;54.242;10.280;2022-07-10T00:04:27;101900.63;;;12.04;100.00
62418;BME280;48456;54.242;10.280;2022-07-10T00:06:54;101901.44;;;11.94;100.00
62418;BME280;48456;54.242;10.280;2022-07-10T00:09:22;101902.25;;;11.85;100.00
62418;BME280;48456;54.242;10.280;2022-07-10T00:11:48;101905.69;;;11.73;100.00
62418;BME280;48456;54.242;10.280;2022-07-10T00:14:14;101900.34;;;11.70;100.00
62418;BME280;48456;54.242;10.280;2022-07-10T00:16:41;101909.16;;;11.66;100.00
62418;BME280;48456;54.242;10.280;2022-07-10T00:19:07;101903.84;;;11.61;100.00
62418;BME280;48456;54.242;10.280;2022-07-10T00:21:33;101903.81;;;11.60;100.00
62418;BME280;48456;54.242;10.280;2022-07-10T00:24:00;101894.91;;;11.54;100.00
62418;BME280;48456;54.242;10.280;2022-07-10T00:26:26;101894.00;;;11.49;100.00
62418;BME280;48456;54.242;10.280;2022-07-10T00:28:52;101895.78;;;11.49;100.00
62418;BME280;48456;54.242;10.280;2022-07-10T00:31:19;101899.25;;;11.43;100.00
62418;BME280;48456;54.242;10.280;2022-07-10T00:33:46;101892.16;;;11.43;100.00
62418;BME280;48456;54.242;10.280;2022-07-10T00:36:14;101885.97;;;11.40;100.00
62418;BME280;48456;54.242;10.280;2022-07-10T00:38:40;101881.50;;;11.36;100.00
62418;BME280;48456;54.242;10.280;2022-07-10T00:41:07;101886.78;;;11.34;100.00
62418;BME280;48456;54.242;10.280;2022-07-10T00:43:54;101886.75;;;11.33;100.00
62418;BME280;48456;54.242;10.280;2022-07-10T00:46:20;101887.63;;;11.31;100.00
62418;BME280;48456;54.242;10.280;2022-07-10T00:48:47;101887.69;;;11.35;100.00
62418;BME280;48456;54.242;10.280;2022-07-10T00:51:14;101895.69;;;11.41;100.00
62418;BME280;48456;54.242;10.280;2022-07-10T00:53:40;101891.34;;;11.46;100.00
62418;BME280;48456;54.242;10.280;2022-07-10T00:56:07;101890.47;;;11.52;100.00
62418;BME280;48456;54.242;10.280;2022-07-10T00:58:34;101887.00;;;11.57;100.00
62418;BME280;48456;54.242;10.280;2022-07-10T01:01:02;101875.53;;;11.60;100.00
62418;BME280;48456;54.242;10.280;2022-07-10T01:03:28;101872.91;;;11.62;100.00
62418;BME280;48456;54.242;10.280;2022-07-10T01:05:54;101876.50;;;11.68;100.00
62418;BME280;48456;54.242;10.280;2022-07-10T01:08:21;101875.63;;;11.69;100.00
62418;BME280;48456;54.242;10.280;2022-07-10T01:10:47;101879.13;;;11.68;100.00
62418;BME280;48456;54.242;10.280;2022-07-10T01:13:14;101878.28;;;11.69;100.00
62418;BME280;48456;54.242;10.280;2022-07-10T01:15:40;101875.63;;;11.73;100.00
62418;BME280;48456;54.242;10.280;2022-07-10T01:18:06;101872.13;;;11.77;100.00
62418;BME280;48456;54.242;10.280;2022-07-10T01:20:33;101871.31;;;11.82;100.00
62418;BME280;48456;54.242;10.280;2022-07-10T01:23:00;101876.59;;;11.82;100.00
62418;BME280;48456;54.242;10.280;2022-07-10T01:25:26;101866.88;;;11.81;100.00
62418;BME280;48456;54.242;10.280;2022-07-10T01:27:53;101866.91;;;11.83;100.00
62418;BME280;48456;54.242;10.280;2022-07-10T01:30:20;101867.78;;;11.83;100.00
62418;BME280;48456;54.242;10.280;2022-07-10T01:32:47;101873.09;;;11.85;100.00
62418;BME280;48456;54.242;10.280;2022-07-10T01:35:13;101864.25;;;11.88;100.00
62418;BME280;48456;54.242;10.280;2022-07-10T01:37:40;101876.66;;;11.90;100.00
62418;BME280;48456;54.242;10.280;2022-07-10T01:40:06;101870.50;;;11.91;100.00
62418;BME280;48456;54.242;10.280;2022-07-10T01:42:33;101863.44;;;11.95;100.00
62418;BME280;48456;54.242;10.280;2022-07-10T01:44:59;101865.25;;;11.99;100.00
62418;BME280;48456;54.242;10.280;2022-07-10T01:47:32;101868.78;;;12.03;100.00
62418;BME280;48456;54.242;10.280;2022-07-10T01:49:58;101866.16;;;12.04;100.00
62418;BME280;48456;54.242;10.280;2022-07-10T01:52:24;101862.63;;;12.04;100.00
62418;BME280;48456;54.242;10.280;2022-07-10T01:54:51;101862.66;;;12.05;100.00
62418;BME280;48456;54.242;10.280;2022-07-10T01:57:17;101861.75;;;12.05;100.00
62418;BME280;48456;54.242;10.280;2022-07-10T01:59:44;101860.84;;;12.04;100.00
62418;BME280;48456;54.242;10.280;2022-07-10T02:02:11;101855.53;;;12.04;100.00
62418;BME280;48456;54.242;10.280;2022-07-10T02:04:37;101856.44;;;12.05;100.00
62418;BME280;48456;54.242;10.280;2022-07-10T02:07:10;101854.69;;;12.04;100.00
62418;BME280;48456;54.242;10.280;2022-07-10T02:09:37;101851.97;;;11.99;100.00
62418;BME280;48456;54.242;10.280;2022-07-10T02:12:08;101851.97;;;11.99;100.00
62418;BME280;48456;54.242;10.280;2022-07-10T02:14:35;101850.22;;;11.98;100.00
62418;BME280;48456;54.242;10.280;2022-07-10T02:17:02;101849.34;;;12.01;100.00
62418;BME280;48456;54.242;10.280;2022-07-10T02:19:28;101844.91;;;12.01;100.00
62418;BME280;48456;54.242;10.280;2022-07-10T02:21:54;101844.91;;;12.01;100.00
62418;BME280;48456;54.242;10.280;2022-07-10T02:24:21;101849.34;;;12.02;100.00
62418;BME280;48456;54.242;10.280;2022-07-10T02:26:48;101837.84;;;12.02;100.00
62418;BME280;48456;54.242;10.280;2022-07-10T02:29:14;101842.25;;;12.01;100.00
62418;BME280;48456;54.242;10.280;2022-07-10T02:31:41;101840.47;;;11.99;100.00
62418;BME280;48456;54.242;10.280;2022-07-10T02:34:08;101842.25;;;11.98;100.00
62418;BME280;48456;54.242;10.280;2022-07-10T02:36:35;101850.19;;;11.96;100.00
62418;BME280;48456;54.242;10.280;2022-07-10T02:39:02;101838.69;;;11.94;100.00
62418;BME280;48456;54.242;10.280;2022-07-10T02:41:28;101838.69;;;11.93;100.00
62418;BME280;48456;54.242;10.280;2022-07-10T02:43:55;101845.78;;;11.94;100.00
62418;BME280;48456;54.242;10.280;2022-07-10T02:46:21;101841.34;;;11.96;100.00
62418;BME280;48456;54.242;10.280;2022-07-10T02:48:47;101840.47;;;11.94;100.00
62418;BME280;48456;54.242;10.280;2022-07-10T02:51:14;101843.97;;;11.94;100.00
62418;BME280;48456;54.242;10.280;2022-07-10T02:53:40;101847.53;;;11.95;100.00
62418;BME280;48456;54.242;10.280;2022-07-10T02:56:07;101847.53;;;11.93;100.00
62418;BME280;48456;54.242;10.280;2022-07-10T02:58:33;101837.81;;;11.94;100.00
62418;BME280;48456;54.242;10.280;2022-07-10T03:01:00;101846.63;;;11.94;100.00
62418;BME280;48456;54.242;10.280;2022-07-10T03:03:26;101841.31;;;11.94;100.00
62418;BME280;48456;54.242;10.280;2022-07-10T03:05:53;101834.25;;;11.92;100.00
62418;BME280;48456;54.242;10.280;2022-07-10T03:08:19;101836.91;;;11.92;100.00
62418;BME280;48456;54.242;10.280;2022-07-10T03:10:45;101830.72;;;11.91;100.00
62418;BME280;48456;54.242;10.280;2022-07-10T03:13:12;101838.66;;;11.90;100.00
62418;BME280;48456;54.242;10.280;2022-07-10T03:15:38;101835.13;;;11.89;100.00
62418;BME280;48456;54.242;10.280;2022-07-10T03:18:04;101835.09;;;11.85;100.00
62418;BME280;48456;54.242;10.280;2022-07-10T03:20:31;101840.34;;;11.78;100.00
62418;BME280;48456;54.242;10.280;2022-07-10T03:22:57;101843.91;;;11.79;100.00
62418;BME280;48456;54.242;10.280;2022-07-10T03:25:23;101841.22;;;11.77;100.00
62418;BME280;48456;54.242;10.280;2022-07-10T03:27:50;101849.19;;;11.77;100.00
62418;BME280;48456;54.242;10.280;2022-07-10T03:30:16;101838.59;;;11.80;100.00
62418;BME280;48456;54.242;10.280;2022-07-10T03:32:43;101837.75;;;11.85;100.00
62418;BME280;48456;54.242;10.280;2022-07-10T03:35:09;101841.31;;;11.90;100.00
62418;BME280;48456;54.242;10.280;2022-07-10T03:37:35;101847.50;;;11.90;100.00
62418;BME280;48456;54.242;10.280;2022-07-10T03:40:02;101843.97;;;11.91;100.00
62418;BME280;48456;54.242;10.280;2022-07-10T03:42:28;101846.63;;;11.94;100.00
62418;BME280;48456;54.242;10.280;2022-07-10T03:44:54;101845.78;;;12.00;100.00
62418;BME280;48456;54.242;10.280;2022-07-10T03:47:21;101836.97;;;12.04;100.00
62418;BME280;48456;54.242;10.280;2022-07-10T03:49:47;101831.66;;;12.03;100.00
62418;BME280;48456;54.242;10.280;2022-07-10T03:52:13;101826.38;;;12.00;100.00
62418;BME280;48456;54.242;10.280;2022-07-10T03:54:40;101824.56;;;11.95;100.00
62418;BME280;48456;54.242;10.280;2022-07-10T03:57:06;101821.03;;;11.95;100.00
62418;BME280;48456;54.242;10.280;2022-07-10T03:59:51;101823.66;;;11.93;100.00
62418;BME280;48456;54.242;10.280;2022-07-10T04:02:17;101827.16;;;11.88;100.00
62418;BME280;48456;54.242;10.280;2022-07-10T04:04:44;101823.59;;;11.82;100.00
62418;BME280;48456;54.242;10.280;2022-07-10T04:07:11;101829.75;;;11.78;100.00
62418;BME280;48456;54.242;10.280;2022-07-10T04:09:38;101829.72;;;11.72;100.00
62418;BME280;48456;54.242;10.280;2022-07-10T04:12:05;101827.00;;;11.67;100.00
62418;BME280;48456;54.242;10.280;2022-07-10T04:14:32;101826.09;;;11.62;100.00
62418;BME280;48456;54.242;10.280;2022-07-10T04:16:58;101831.34;;;11.53;100.00
62418;BME280;48456;54.242;10.280;2022-07-10T04:19:25;101823.28;;;11.45;100.00
62418;BME280;48456;54.242;10.280;2022-07-10T04:21:51;101821.50;;;11.41;100.00
62418;BME280;48456;54.242;10.280;2022-07-10T04:24:17;101819.66;;;11.35;100.00
62418;BME280;48456;54.242;10.280;2022-07-10T04:26:44;101829.34;;;11.30;100.00
62418;BME280;48456;54.242;10.280;2022-07-10T04:29:10;101825.78;;;11.26;100.00
62418;BME280;48456;54.242;10.280;2022-07-10T04:31:37;101832.84;;;11.23;100.00
62418;BME280;48456;54.242;10.280;2022-07-10T04:34:03;101825.78;;;11.25;100.00
62418;BME280;48456;54.242;10.280;2022-07-10T04:36:30;101827.53;;;11.26;100.00
62418;BME280;48456;54.242;10.280;2022-07-10T04:38:56;101824.91;;;11.26;100.00
62418;BME280;48456;54.242;10.280;2022-07-10T04:41:23;101826.69;;;11.25;100.00
62418;BME280;48456;54.242;10.280;2022-07-10T04:43:49;101819.56;;;11.21;100.00
62418;BME280;48456;54.242;10.280;2022-07-10T04:46:15;101831.00;;;11.20;100.00
62418;BME280;48456;54.242;10.280;2022-07-10T04:48:42;101831.97;;;11.25;100.00
62418;BME280;48456;54.242;10.280;2022-07-10T04:51:08;101826.69;;;11.27;100.00
62418;BME280;48456;54.242;10.280;2022-07-10T04:53:35;101830.19;;;11.23;100.00
62418;BME280;48456;54.242;10.280;2022-07-10T04:56:01;101830.16;;;11.21;100.00
62418;BME280;48456;54.242;10.280;2022-07-10T04:58:28;101837.22;;;11.22;100.00
62418;BME280;48456;54.242;10.280;2022-07-10T05:00:55;101831.09;;;11.26;100.00
62418;BME280;48456;54.242;10.280;2022-07-10T05:03:21;101828.47;;;11.28;100.00
62418;BME280;48456;54.242;10.280;2022-07-10T05:05:48;101820.56;;;11.36;100.00
62418;BME280;48456;54.242;10.280;2022-07-10T05:08:14;101825.94;;;11.42;100.00
62418;BME280;48456;54.242;10.280;2022-07-10T05:10:40;101829.53;;;11.53;100.00
62418;BME280;48456;54.242;10.280;2022-07-10T05:13:06;101838.50;;;11.71;100.00
62418;BME280;48456;54.242;10.280;2022-07-10T05:15:33;101841.31;;;11.88;100.00
62418;BME280;48456;54.242;10.280;2022-07-10T05:17:59;101835.28;;;12.08;100.00
62418;BME280;48456;54.242;10.280;2022-07-10T05:20:26;101834.47;;;12.26;100.00
62418;BME280;48456;54.242;10.280;2022-07-10T05:22:52;101833.69;;;12.38;100.00
62418;BME280;48456;54.242;10.280;2022-07-10T05:25:18;101831.06;;;12.52;100.00
62418;BME280;48456;54.242;10.280;2022-07-10T05:27:45;101835.53;;;12.61;100.00
62418;BME280;48456;54.242;10.280;2022-07-10T05:30:11;101828.44;;;12.65;100.00
62418;BME280;48456;54.242;10.280;2022-07-10T05:32:44;101824.97;;;12.73;100.00
62418;BME280;48456;54.242;10.280;2022-07-10T05:35:11;101822.34;;;12.88;100.00
62418;BME280;48456;54.242;10.280;2022-07-10T05:37:37;101820.59;;;13.04;100.00
62418;BME280;48456;54.242;10.280;2022-07-10T05:40:04;101824.19;;;13.17;100.00
62418;BME280;48456;54.242;10.280;2022-07-10T05:42:30;101822.41;;;13.25;100.00
62418;BME280;48456;54.242;10.280;2022-07-10T05:44:56;101820.63;;;13.24;100.00
62418;BME280;48456;54.242;10.280;2022-07-10T05:47:23;101826.81;;;13.23;100.00
62418;BME280;48456;54.242;10.280;2022-07-10T05:49:49;101826.81;;;13.23;100.00
62418;BME280;48456;54.242;10.280;2022-07-10T05:52:15;101825.94;;;13.29;100.00
62418;BME280;48456;54.242;10.280;2022-07-10T05:54:42;101835.69;;;13.31;100.00
62418;BME280;48456;54.242;10.280;2022-07-10T05:57:08;101833.91;;;13.29;100.00
62418;BME280;48456;54.242;10.280;2022-07-10T05:59:35;101833.00;;;13.26;100.00
62418;BME280;48456;54.242;10.280;2022-07-10T06:02:01;101828.63;;;13.32;100.00
62418;BME280;48456;54.242;10.280;2022-07-10T06:04:28;101840.13;;;13.38;100.00
62418;BME280;48456;54.242;10.280;2022-07-10T06:06:54;101840.16;;;13.48;100.00
62418;BME280;48456;54.242;10.280;2022-07-10T06:09:21;101841.94;;;13.50;100.00
62418;BME280;48456;54.242;10.280;2022-07-10T06:11:47;101842.81;;;13.56;100.00
62418;BME280;48456;54.242;10.280;2022-07-10T06:14:15;101846.34;;;13.62;100.00
62418;BME280;48456;54.242;10.280;2022-07-10T06:16:41;101847.25;;;13.66;100.00
62418;BME280;48456;54.242;10.280;2022-07-10T06:19:08;101849.03;;;13.70;100.00
62418;BME280;48456;54.242;10.280;2022-07-10T06:21:34;101833.06;;;13.80;100.00
62418;BME280;48456;54.242;10.280;2022-07-10T06:24:00;101835.72;;;13.81;100.00
62418;BME280;48456;54.242;10.280;2022-07-10T06:26:27;101825.94;;;13.80;100.00
62418;BME280;48456;54.242;10.280;2022-07-10T06:28:53;101839.22;;;13.94;100.00
62418;BME280;48456;54.242;10.280;2022-07-10T06:31:19;101824.16;;;14.02;100.00
62418;BME280;48456;54.242;10.280;2022-07-10T06:33:46;101827.69;;;14.12;100.00
62418;BME280;48456;54.242;10.280;2022-07-10T06:36:12;101825.88;;;14.19;100.00
62418;BME280;48456;54.242;10.280;2022-07-10T06:38:39;101826.75;;;14.26;100.00
62418;BME280;48456;54.242;10.280;2022-07-10T06:41:05;101825.84;;;14.30;100.00
62418;BME280;48456;54.242;10.280;2022-07-10T06:43:32;101833.84;;;14.24;100.00
62418;BME280;48456;54.242;10.280;2022-07-10T06:45:58;101830.31;;;14.26;100.00
62418;BME280;48456;54.242;10.280;2022-07-10T06:48:25;101839.16;;;14.32;100.00
62418;BME280;48456;54.242;10.280;2022-07-10T06:50:52;101840.91;;;14.40;100.00
62418;BME280;48456;54.242;10.280;2022-07-10T06:53:19;101835.53;;;14.43;100.00
62418;BME280;48456;54.242;10.280;2022-07-10T06:55:50;101845.34;;;14.35;100.00
62418;BME280;48456;54.242;10.280;2022-07-10T06:58:17;101836.53;;;14.24;100.00
62418;BME280;48456;54.242;10.280;2022-07-10T07:00:43;101835.63;;;14.20;100.00
62418;BME280;48456;54.242;10.280;2022-07-10T07:03:10;101839.16;;;14.27;100.00
62418;BME280;48456;54.242;10.280;2022-07-10T07:05:44;101838.25;;;14.34;100.00
62418;BME280;48456;54.242;10.280;2022-07-10T07:08:11;101828.47;;;14.44;100.00
62418;BME280;48456;54.242;10.280;2022-07-10T07:10:40;101831.13;;;14.46;100.00
62418;BME280;48456;54.242;10.280;2022-07-10T07:13:07;101829.25;;;14.63;100.00
62418;BME280;48456;54.242;10.280;2022-07-10T07:15:35;101829.25;;;14.62;100.00
62418;BME280;48456;54.242;10.280;2022-07-10T07:18:05;101833.69;;;14.66;100.00
62418;BME280;48456;54.242;10.280;2022-07-10T07:20:38;101823.00;;;14.80;100.00
62418;BME280;48456;54.242;10.280;2022-07-10T07:23:24;101830.09;;;14.83;100.00
62418;BME280;48456;54.242;10.280;2022-07-10T07:25:51;101833.66;;;14.78;100.00
62418;BME280;48456;54.242;10.280;2022-07-10T07:28:18;101834.53;;;14.80;100.00
62418;BME280;48456;54.242;10.280;2022-07-10T07:30:46;101830.91;;;14.96;100.00
62418;BME280;48456;54.242;10.280;2022-07-10T07:33:13;101829.13;;;14.93;100.00
62418;BME280;48456;54.242;10.280;2022-07-10T07:35:39;101826.56;;;14.80;100.00
62418;BME280;48456;54.242;10.280;2022-07-10T07:38:06;101826.50;;;14.87;100.00
62418;BME280;48456;54.242;10.280;2022-07-10T07:40:33;101838.06;;;14.87;100.00
62418;BME280;48456;54.242;10.280;2022-07-10T07:42:59;101837.22;;;14.80;100.00
62418;BME280;48456;54.242;10.280;2022-07-10T07:45:26;101831.03;;;14.66;100.00
62418;BME280;48456;54.242;10.280;2022-07-10T07:47:54;101826.59;;;14.63;100.00
62418;BME280;48456;54.242;10.280;2022-07-10T07:50:24;101820.38;;;14.69;100.00
62418;BME280;48456;54.242;10.280;2022-07-10T07:52:55;101822.13;;;14.72;100.00
62418;BME280;48456;54.242;10.280;2022-07-10T07:55:22;101822.03;;;14.90;100.00
62418;BME280;48456;54.242;10.280;2022-07-10T07:57:53;101821.72;;;15.37;100.00
62418;BME280;48456;54.242;10.280;2022-07-10T08:00:20;101813.47;;;15.67;100.00
62418;BME280;48456;54.242;10.280;2022-07-10T08:02:51;101819.59;;;15.77;100.00
62418;BME280;48456;54.242;10.280;2022-07-10T08:05:20;101827.66;;;15.70;100.00
62418;BME280;48456;54.242;10.280;2022-07-10T08:07:47;101824.06;;;15.73;100.00
62418;BME280;48456;54.242;10.280;2022-07-10T08:10:15;101826.69;;;15.81;100.00
62418;BME280;48456;54.242;10.280;2022-07-10T08:12:42;101821.03;;;16.15;100.00
62418;BME280;48456;54.242;10.280;2022-07-10T08:15:10;101810.78;;;16.52;100.00
62418;BME280;48456;54.242;10.280;2022-07-10T08:17:37;101805.25;;;16.66;100.00
62418;BME280;48456;54.242;10.280;2022-07-10T08:20:06;101814.22;;;16.61;100.00
62418;BME280;48456;54.242;10.280;2022-07-10T08:22:33;101817.06;;;16.47;100.00
62418;BME280;48456;54.242;10.280;2022-07-10T08:25:00;101817.13;;;16.43;100.00
62418;BME280;48456;54.242;10.280;2022-07-10T08:27:27;101811.56;;;16.60;100.00
62418;BME280;48456;54.242;10.280;2022-07-10T08:29:54;101795.25;;;16.80;100.00
62418;BME280;48456;54.242;10.280;2022-07-10T08:32:20;101799.94;;;16.62;100.00
62418;BME280;48456;54.242;10.280;2022-07-10T08:34:47;101799.72;;;16.80;100.00
62418;BME280;48456;54.242;10.280;2022-07-10T08:37:15;101800.22;;;17.07;100.00
62418;BME280;48456;54.242;10.280;2022-07-10T08:39:41;101800.81;;;17.27;100.00
62418;BME280;48456;54.242;10.280;2022-07-10T08:42:08;101786.69;;;17.18;100.00
62418;BME280;48456;54.242;10.280;2022-07-10T08:44:36;101797.53;;;17.10;100.00
62418;BME280;48456;54.242;10.280;2022-07-10T08:47:03;101792.47;;;16.88;100.00
62418;BME280;48456;54.242;10.280;2022-07-10T08:49:30;101802.47;;;16.73;100.00
62418;BME280;48456;54.242;10.280;2022-07-10T08:51:58;101788.16;;;16.78;100.00
62418;BME280;48456;54.242;10.280;2022-07-10T08:54:28;101789.72;;;16.91;100.00
62418;BME280;48456;54.242;10.280;2022-07-10T08:56:56;101800.59;;;16.80;100.00
62418;BME280;48456;54.242;10.280;2022-07-10T08:59:22;101804.66;;;17.08;100.00
62418;BME280;48456;54.242;10.280;2022-07-10T09:01:56;101800.97;;;17.17;100.00
62418;BME280;48456;54.242;10.280;2022-07-10T09:04:26;101810.38;;;17.41;100.00
62418;BME280;48456;54.242;10.280;2022-07-10T09:06:53;101793.53;;;17.86;100.00
62418;BME280;48456;54.242;10.280;2022-07-10T09:09:20;101801.47;;;17.91;100.00
62418;BME280;48456;54.242;10.280;2022-07-10T09:11:47;101791.53;;;17.98;100.00
62418;BME280;48456;54.242;10.280;2022-07-10T09:14:14;101791.66;;;18.37;100.00
62418;BME280;48456;54.242;10.280;2022-07-10T09:16:58;101777.13;;;18.89;100.00
62418;BME280;48456;54.242;10.280;2022-07-10T09:19:25;101767.44;;;18.81;100.00
62418;BME280;48456;54.242;10.280;2022-07-10T09:21:52;101791.53;;;18.43;100.00
62418;BME280;48456;54.242;10.280;2022-07-10T09:24:19;101782.22;;;18.19;100.00
62418;BME280;48456;54.242;10.280;2022-07-10T09:26:48;101790.06;;;18.28;100.00
62418;BME280;48456;54.242;10.280;2022-07-10T09:29:23;101786.41;;;18.33;100.00
62418;BME280;48456;54.242;10.280;2022-07-10T09:31:53;101789.97;;;18.31;100.00
62418;BME280;48456;54.242;10.280;2022-07-10T09:37:18;101792.66;;;17.86;100.00
62418;BME280;48456;54.242;10.280;2022-07-10T09:39:58;101784.69;;;17.83;100.00
62418;BME280;48456;54.242;10.280;2022-07-10T09:47:40;101790.50;;;18.05;100.00
62418;BME280;48456;54.242;10.280;2022-07-10T09:50:20;101800.09;;;18.17;100.00
62418;BME280;48456;54.242;10.280;2022-07-10T09:52:52;101803.75;;;18.13;100.00
62418;BME280;48456;54.242;10.280;2022-07-10T09:55:19;101801.53;;;17.86;100.00
62418;BME280;48456;54.242;10.280;2022-07-10T09:57:49;101802.84;;;17.65;100.00
62418;BME280;48456;54.242;10.280;2022-07-10T10:00:18;101803.50;;;17.76;100.00
62418;BME280;48456;54.242;10.280;2022-07-10T10:02:44;101806.09;;;17.83;100.00
62418;BME280;48456;54.242;10.280;2022-07-10T10:05:11;101796.28;;;17.83;100.00
62418;BME280;48456;54.242;10.280;2022-07-10T10:07:39;101793.81;;;18.20;100.00
62418;BME280;48456;54.242;10.280;2022-07-10T10:10:06;101807.56;;;18.45;100.00
62418;BME280;48456;54.242;10.280;2022-07-10T10:12:39;101813.78;;;18.46;100.00
62418;BME280;48456;54.242;10.280;2022-07-10T10:15:10;101815.66;;;18.42;100.00
62418;BME280;48456;54.242;10.280;2022-07-10T10:17:36;101814.03;;;18.35;100.00
62418;BME280;48456;54.242;10.280;2022-07-10T10:20:04;101814.09;;;18.31;100.00
62418;BME280;48456;54.242;10.280;2022-07-10T10:22:50;101815.47;;;18.51;100.00
62418;BME280;48456;54.242;10.280;2022-07-10T10:25:16;101806.38;;;18.59;100.00
62418;BME280;48456;54.242;10.280;2022-07-10T10:27:43;101801.53;;;19.16;100.00
62418;BME280;48456;54.242;10.280;2022-07-10T10:30:10;101792.78;;;19.44;100.00
62418;BME280;48456;54.242;10.280;2022-07-10T10:32:40;101795.38;;;19.12;100.00
62418;BME280;48456;54.242;10.280;2022-07-10T10:35:07;101799.06;;;19.06;100.00
62418;BME280;48456;54.242;10.280;2022-07-10T10:37:39;101798.72;;;19.22;100.00
62418;BME280;48456;54.242;10.280;2022-07-10T10:40:11;101802.03;;;19.67;100.00
62418;BME280;48456;54.242;10.280;2022-07-10T10:42:55;101805.78;;;19.25;100.00
62418;BME280;48456;54.242;10.280;2022-07-10T10:45:26;101812.25;;;19.16;100.00
62418;BME280;48456;54.242;10.280;2022-07-10T10:48:02;101817.88;;;19.03;99.04
62418;BME280;48456;54.242;10.280;2022-07-10T10:50:51;101796.16;;;19.16;96.68
62418;BME280;48456;54.242;10.280;2022-07-10T10:53:19;101797.09;;;20.18;86.11
62418;BME280;48456;54.242;10.280;2022-07-10T10:58:37;101795.78;;;20.31;80.41
62418;BME280;48456;54.242;10.280;2022-07-10T11:06:44;101814.59;;;19.66;88.35
62418;BME280;48456;54.242;10.280;2022-07-10T11:12:00;101807.88;;;18.72;100.00
62418;BME280;48456;54.242;10.280;2022-07-10T11:14:27;101811.19;;;18.83;100.00
62418;BME280;48456;54.242;10.280;2022-07-10T11:16:55;101804.47;;;19.03;100.00
62418;BME280;48456;54.242;10.280;2022-07-10T11:19:22;101815.44;;;19.32;100.00
62418;BME280;48456;54.242;10.280;2022-07-10T11:21:53;101810.66;;;19.45;95.62
62418;BME280;48456;54.242;10.280;2022-07-10T11:24:38;101816.22;;;19.37;97.54
62418;BME280;48456;54.242;10.280;2022-07-10T11:27:14;101822.56;;;20.03;92.28
62418;BME280;48456;54.242;10.280;2022-07-10T11:29:42;101813.97;;;20.83;80.60
62418;BME280;48456;54.242;10.280;2022-07-10T11:32:19;101805.41;;;20.99;80.79
62418;BME280;48456;54.242;10.280;2022-07-10T11:34:46;101810.78;;;20.40;83.48
62418;BME280;48456;54.242;10.280;2022-07-10T11:37:15;101817.09;;;20.39;98.49
62418;BME280;48456;54.242;10.280;2022-07-10T11:39:42;101807.34;;;21.22;84.51
62418;BME280;48456;54.242;10.280;2022-07-10T11:42:09;101808.53;;;22.66;68.23
62418;BME280;48456;54.242;10.280;2022-07-10T11:44:35;101807.97;;;23.68;55.77
62418;BME280;48456;54.242;10.280;2022-07-10T11:47:02;101799.84;;;24.31;55.00
62418;BME280;48456;54.242;10.280;2022-07-10T11:49:29;101800.66;;;23.72;54.55
62418;BME280;48456;54.242;10.280;2022-07-10T11:52:02;101800.13;;;23.19;55.89
62418;BME280;48456;54.242;10.280;2022-07-10T11:54:29;101797.19;;;22.58;61.17
62418;BME280;48456;54.242;10.280;2022-07-10T11:56:56;101808.47;;;22.68;62.90
62418;BME280;48456;54.242;10.280;2022-07-10T11:59:26;101810.44;;;21.64;63.25
62418;BME280;48456;54.242;10.280;2022-07-10T12:01:54;101812.25;;;20.50;73.84
62418;BME280;48456;54.242;10.280;2022-07-10T12:04:21;101806.72;;;20.85;80.07
62418;BME280;48456;54.242;10.280;2022-07-10T12:06:50;101807.41;;;21.48;70.21
62418;BME280;48456;54.242;10.280;2022-07-10T12:09:18;101798.53;;;22.70;67.65
62418;BME280;48456;54.242;10.280;2022-07-10T12:14:25;101810.72;;;21.56;69.00
62418;BME280;48456;54.242;10.280;2022-07-10T12:16:52;101818.59;;;20.78;74.04
62418;BME280;48456;54.242;10.280;2022-07-10T12:19:20;101820.25;;;20.22;91.22
62418;BME280;48456;54.242;10.280;2022-07-10T12:21:48;101818.53;;;19.86;99.46
62418;BME280;48456;54.242;10.280;2022-07-10T12:24:20;101814.88;;;20.82;100.00
62418;BME280;48456;54.242;10.280;2022-07-10T12:26:47;101808.84;;;22.58;71.67
62418;BME280;48456;54.242;10.280;2022-07-10T12:31:44;101810.81;;;21.80;72.71
62418;BME280;48456;54.242;10.280;2022-07-10T12:34:11;101805.88;;;21.40;81.04
62418;BME280;48456;54.242;10.280;2022-07-10T12:39:14;101820.47;;;20.46;92.34
62418;BME280;48456;54.242;10.280;2022-07-10T12:41:54;101824.72;;;19.90;98.60
62418;BME280;48456;54.242;10.280;2022-07-10T12:45:08;101816.94;;;19.44;100.00
62418;BME280;48456;54.242;10.280;2022-07-10T12:47:16;101820.06;;;19.61;100.00
62418;BME280;48456;54.242;10.280;2022-07-10T12:49:56;101815.59;;;21.45;100.00
62418;BME280;48456;54.242;10.280;2022-07-10T12:52:29;101815.16;;;23.48;70.55
62418;BME280;48456;54.242;10.280;2022-07-10T12:57:52;101808.91;;;23.03;71.65
62418;BME280;48456;54.242;10.280;2022-07-10T13:00:23;101814.25;;;22.09;72.17
62418;BME280;48456;54.242;10.280;2022-07-10T13:02:57;101815.56;;;21.72;81.26
62418;BME280;48456;54.242;10.280;2022-07-10T13:05:30;101807.25;;;22.77;75.65